KRAP/RAP METAR and TAF weather

Enter ICAO airport designator
Station Type Date Time Source
KRAP METAR 2021/07/26 15:52 UTC NOAA

KRAP 261552Z 02006KT 10SM CLR 31/14 A2995 RMK AO2 SLP105 T03110139


Station Type Date Time Source
KRAP Decoded METAR 2021/07/26 15:52 UTC NOAA

RAPID CITY REGIONAL AIRPORT , SD, United States (KRAP) 44-03N 103-03W 965M
Jul 26, 2021 - 11:52 AM EDT / 2021.07.26 1552 UTC
Wind: from the NNE (020 degrees) at 7 MPH (6 KT):0
Visibility: 10 mile(s):0
Sky conditions: clear
Temperature: 88.0 F (31.1 C)
Dew Point: 57.0 F (13.9 C)
Relative Humidity: 35%
Pressure (altimeter): 29.95 in. Hg (1014 hPa)
ob: KRAP 261552Z 02006KT 10SM CLR 31/14 A2995 RMK AO2 SLP105 T03110139
cycle: 16

Station Type Date Time Source
KRAP TAF 2021/07/26 12:22 UTC NOAA

TAF KRAP 261120Z 2612/2712 20012KT P6SM SCT150
FM261600 35011G20KT P6SM SCT120
FM270100 VRB05KT P6SM SCT250

Example: see airport list